createdAt,value
2018-09-20T00:00:08.090Z,100.00
2018-09-20T00:02:37.809Z,100.00
2018-09-20T00:05:06.990Z,100.00
2018-09-20T00:07:36.120Z,100.00
2018-09-20T00:10:06.011Z,100.00
2018-09-20T00:12:35.354Z,100.00
2018-09-20T00:15:04.486Z,100.00
2018-09-20T00:17:33.630Z,100.00
2018-09-20T00:20:03.502Z,100.00
2018-09-20T00:22:32.622Z,100.00
2018-09-20T00:25:01.767Z,100.00
2018-09-20T00:27:30.861Z,100.00
2018-09-20T00:30:00.697Z,100.00
2018-09-20T00:32:30.785Z,100.00
2018-09-20T00:34:59.901Z,100.00
2018-09-20T00:37:29.062Z,100.00
2018-09-20T00:39:58.199Z,100.00
2018-09-20T00:42:27.826Z,100.00
2018-09-20T00:44:56.999Z,100.00
2018-09-20T00:47:32.837Z,100.00
2018-09-20T00:50:02.013Z,100.00
2018-09-20T00:52:31.201Z,100.00
2018-09-20T00:55:00.641Z,100.00
2018-09-20T00:57:31.193Z,100.00
2018-09-20T01:00:06.190Z,100.00
2018-09-20T01:02:35.323Z,100.00
2018-09-20T01:05:04.459Z,100.00
2018-09-20T01:07:34.374Z,100.00
2018-09-20T01:10:03.485Z,100.00
2018-09-20T01:12:32.626Z,100.00
2018-09-20T01:15:01.749Z,100.00
2018-09-20T01:17:30.858Z,100.00
2018-09-20T01:19:59.982Z,100.00
2018-09-20T01:22:29.126Z,100.00
2018-09-20T01:24:58.287Z,100.00
2018-09-20T01:27:27.430Z,100.00
2018-09-20T01:29:57.122Z,100.00
2018-09-20T01:32:26.233Z,100.00
2018-09-20T01:34:55.386Z,100.00
2018-09-20T01:37:25.012Z,100.00
2018-09-20T01:39:55.786Z,100.00
2018-09-20T01:42:24.982Z,100.00
2018-09-20T01:44:54.286Z,100.00
2018-09-20T01:47:23.917Z,100.00
2018-09-20T01:49:53.073Z,100.00
2018-09-20T01:52:22.201Z,100.00
2018-09-20T01:54:51.390Z,100.00
2018-09-20T01:57:20.702Z,100.00
2018-09-20T01:59:49.958Z,100.00
2018-09-20T02:02:19.605Z,100.00
2018-09-20T02:04:48.846Z,100.00
2018-09-20T02:07:18.083Z,100.00
2018-09-20T02:09:47.318Z,100.00
2018-09-20T02:12:16.243Z,100.00
2018-09-20T02:14:45.529Z,100.00
2018-09-20T02:17:14.705Z,100.00
2018-09-20T02:19:43.881Z,100.00
2018-09-20T02:22:12.969Z,100.00
2018-09-20T02:24:42.222Z,100.00
2018-09-20T02:27:11.362Z,100.00
2018-09-20T02:29:40.871Z,100.00
2018-09-20T02:32:10.028Z,100.00
2018-09-20T02:34:39.201Z,100.00
2018-09-20T02:37:08.374Z,100.00
2018-09-20T02:39:37.537Z,100.00
2018-09-20T02:42:06.715Z,100.00
2018-09-20T02:44:35.843Z,100.00
2018-09-20T02:47:05.041Z,100.00
2018-09-20T02:49:34.250Z,100.00
2018-09-20T02:52:04.170Z,100.00
2018-09-20T02:54:34.041Z,100.00
2018-09-20T02:57:04.074Z,100.00
2018-09-20T02:59:33.207Z,100.00
2018-09-20T03:02:02.874Z,100.00
2018-09-20T03:04:32.207Z,100.00
2018-09-20T03:07:01.458Z,100.00
2018-09-20T03:09:30.666Z,100.00
2018-09-20T03:12:00.284Z,100.00
2018-09-20T03:14:30.091Z,100.00
2018-09-20T03:16:59.285Z,100.00
2018-09-20T03:19:28.622Z,100.00
2018-09-20T03:21:57.821Z,100.00
2018-09-20T03:24:26.959Z,100.00
2018-09-20T03:26:56.137Z,100.00
2018-09-20T03:29:25.293Z,100.00
2018-09-20T03:31:54.442Z,100.00
2018-09-20T03:34:23.579Z,100.00
2018-09-20T03:36:52.709Z,100.00
2018-09-20T03:39:21.881Z,100.00
2018-09-20T03:41:51.022Z,100.00
2018-09-20T03:44:20.173Z,100.00
2018-09-20T03:46:49.289Z,100.00
2018-09-20T03:49:18.644Z,100.00
2018-09-20T03:51:49.030Z,100.00
2018-09-20T03:54:18.163Z,100.00
2018-09-20T03:56:47.282Z,100.00
2018-09-20T03:59:16.475Z,100.00
2018-09-20T04:01:46.005Z,100.00
2018-09-20T04:04:15.055Z,100.00
2018-09-20T04:06:44.425Z,100.00
2018-09-20T04:09:13.582Z,100.00
2018-09-20T04:11:42.706Z,100.00
2018-09-20T04:14:11.810Z,100.00
2018-09-20T04:16:42.166Z,100.00
2018-09-20T04:19:11.293Z,100.00
2018-09-20T04:21:40.678Z,100.00
2018-09-20T04:24:09.830Z,100.00
2018-09-20T04:26:39.087Z,100.00
2018-09-20T04:29:08.234Z,100.00
2018-09-20T04:31:37.453Z,100.00
2018-09-20T04:34:06.554Z,100.00
2018-09-20T04:36:35.730Z,100.00
2018-09-20T04:39:07.914Z,100.00
2018-09-20T04:41:37.466Z,100.00
2018-09-20T04:44:06.626Z,100.00
2018-09-20T04:46:36.554Z,100.00
2018-09-20T04:49:05.722Z,100.00
2018-09-20T04:51:34.957Z,100.00
2018-09-20T04:54:04.118Z,100.00
2018-09-20T04:56:33.250Z,100.00
2018-09-20T04:59:02.378Z,100.00
2018-09-20T05:01:31.862Z,100.00
2018-09-20T05:04:01.858Z,100.00
2018-09-20T05:06:30.538Z,100.00
2018-09-20T05:09:00.110Z,100.00
2018-09-20T05:11:29.234Z,100.00
2018-09-20T05:13:58.354Z,100.00
2018-09-20T05:16:27.550Z,100.00
2018-09-20T05:18:57.234Z,100.00
2018-09-20T05:21:26.383Z,100.00
2018-09-20T05:23:56.262Z,100.00
2018-09-20T05:26:25.387Z,100.00
2018-09-20T05:28:54.563Z,100.00
2018-09-20T05:31:23.759Z,100.00
2018-09-20T05:33:52.887Z,100.00
2018-09-20T05:36:22.874Z,100.00
2018-09-20T05:38:52.134Z,100.00
2018-09-20T05:41:21.474Z,100.00
2018-09-20T05:43:50.723Z,100.00
2018-09-20T05:46:19.850Z,100.00
2018-09-20T05:48:49.040Z,100.00
2018-09-20T05:51:18.182Z,100.00
2018-09-20T05:53:47.463Z,100.00
2018-09-20T05:56:16.639Z,100.00
2018-09-20T05:58:45.790Z,100.00
2018-09-20T06:01:15.001Z,100.00
2018-09-20T06:03:44.146Z,100.00
2018-09-20T06:06:14.380Z,100.00
2018-09-20T06:08:44.282Z,100.00
2018-09-20T06:11:13.466Z,96.66
2018-09-20T06:13:49.339Z,92.63
2018-09-20T06:16:18.881Z,92.60
2018-09-20T06:18:48.366Z,90.56
2018-09-20T06:21:17.895Z,90.12
2018-09-20T06:23:47.885Z,87.03
2018-09-20T06:26:17.620Z,87.54
2018-09-20T06:28:46.983Z,82.83
2018-09-20T06:31:16.081Z,76.82
2018-09-20T06:33:45.229Z,74.40
2018-09-20T06:36:14.410Z,70.19
2018-09-20T06:38:43.553Z,68.78
2018-09-20T06:41:12.906Z,67.41
2018-09-20T06:43:42.028Z,66.54
2018-09-20T06:46:11.197Z,67.07
2018-09-20T06:48:40.313Z,66.35
2018-09-20T06:51:09.446Z,65.66
2018-09-20T06:53:39.110Z,65.29
2018-09-20T06:56:08.283Z,63.80
2018-09-20T06:58:37.521Z,62.25
2018-09-20T07:01:07.354Z,59.44
2018-09-20T07:03:37.132Z,57.76
2018-09-20T07:06:06.498Z,54.12
2018-09-20T07:08:35.809Z,52.35
2018-09-20T07:11:04.590Z,51.80
2018-09-20T07:13:33.760Z,52.47
2018-09-20T07:16:02.867Z,54.60
2018-09-20T07:18:32.586Z,55.95
2018-09-20T07:21:01.766Z,54.82
2018-09-20T07:23:30.888Z,52.51
2018-09-20T07:26:00.031Z,52.42
2018-09-20T07:28:29.166Z,49.11
2018-09-20T07:30:58.987Z,49.37
2018-09-20T07:33:28.100Z,51.12
2018-09-20T07:35:57.262Z,49.91
2018-09-20T07:38:26.410Z,46.86
2018-09-20T07:40:55.603Z,49.21
2018-09-20T07:43:24.765Z,47.86
2018-09-20T07:45:53.865Z,48.83
2018-09-20T07:48:23.325Z,44.09
2018-09-20T07:50:52.749Z,47.23
2018-09-20T07:53:22.075Z,48.48
2018-09-20T07:55:51.210Z,46.19
2018-09-20T07:58:20.397Z,47.02
2018-09-20T08:00:49.833Z,44.02
2018-09-20T08:03:18.954Z,45.73
2018-09-20T08:05:48.822Z,42.44
2018-09-20T08:08:18.754Z,41.74
2018-09-20T08:10:48.098Z,40.12
2018-09-20T08:13:17.329Z,39.17
2018-09-20T08:15:46.489Z,36.65
2018-09-20T08:18:15.697Z,35.99
2018-09-20T08:20:45.185Z,34.20
2018-09-20T08:23:14.378Z,33.74
2018-09-20T08:25:43.621Z,30.98
2018-09-20T08:28:12.861Z,30.87
2018-09-20T08:30:41.994Z,32.34
2018-09-20T08:33:11.190Z,32.75
2018-09-20T08:35:40.389Z,32.63
2018-09-20T08:38:09.504Z,32.53
2018-09-20T08:40:38.626Z,30.44
2018-09-20T08:43:07.781Z,29.71
2018-09-20T08:45:36.912Z,29.44
2018-09-20T08:48:06.206Z,28.85
2018-09-20T08:50:35.334Z,27.77
2018-09-20T08:53:04.459Z,26.34
2018-09-20T08:55:33.616Z,26.60
2018-09-20T08:58:03.043Z,27.05
2018-09-20T09:00:32.177Z,26.72
2018-09-20T09:03:01.326Z,25.82
2018-09-20T09:05:30.450Z,25.38
2018-09-20T09:08:00.266Z,25.75
2018-09-20T09:10:30.591Z,26.17
2018-09-20T09:12:59.806Z,24.94
2018-09-20T09:15:29.103Z,25.15
2018-09-20T09:17:59.075Z,23.52
2018-09-20T09:20:28.254Z,21.56
2018-09-20T09:22:57.367Z,20.40
2018-09-20T09:25:26.495Z,20.21
2018-09-20T09:27:56.343Z,21.58
2018-09-20T09:30:25.469Z,21.33
2018-09-20T09:32:54.597Z,24.53
2018-09-20T09:35:24.329Z,23.17
2018-09-20T09:37:53.536Z,23.91
2018-09-20T09:40:22.654Z,23.22
2018-09-20T09:42:51.839Z,23.26
2018-09-20T09:45:21.032Z,22.68
2018-09-20T09:47:50.174Z,22.97
2018-09-20T09:50:19.314Z,22.72
2018-09-20T09:52:48.817Z,20.48
2018-09-20T09:55:17.946Z,20.18
2018-09-20T09:57:53.889Z,20.61
2018-09-20T10:00:28.210Z,20.74
2018-09-20T10:03:02.245Z,19.88
2018-09-20T10:05:31.373Z,21.01
2018-09-20T10:08:00.506Z,22.49
2018-09-20T10:10:29.249Z,19.74
2018-09-20T10:12:58.445Z,18.53
2018-09-20T10:15:27.549Z,20.48
2018-09-20T10:17:56.683Z,19.43
2018-09-20T10:20:25.906Z,20.12
2018-09-20T10:22:55.013Z,20.65
2018-09-20T10:25:24.162Z,19.69
2018-09-20T10:27:53.402Z,21.25
2018-09-20T10:30:22.535Z,21.50
2018-09-20T10:32:51.674Z,19.84
2018-09-20T10:35:20.841Z,18.14
2018-09-20T10:37:49.970Z,16.89
2018-09-20T10:40:19.117Z,15.21
2018-09-20T10:42:48.281Z,14.50
2018-09-20T10:45:17.398Z,14.23
2018-09-20T10:47:46.497Z,12.88
2018-09-20T10:50:15.666Z,13.35
2018-09-20T10:52:44.771Z,15.71
2018-09-20T10:55:13.930Z,18.76
2018-09-20T10:57:43.061Z,18.09
2018-09-20T11:00:12.506Z,17.18
2018-09-20T11:02:41.702Z,17.63
2018-09-20T11:05:10.818Z,18.17
2018-09-20T11:07:40.457Z,16.68
2018-09-20T11:10:09.655Z,20.55
2018-09-20T11:12:38.894Z,22.67
2018-09-20T11:15:08.767Z,21.15
2018-09-20T11:17:38.076Z,22.96
2018-09-20T11:20:07.979Z,26.45
2018-09-20T11:22:37.379Z,23.44
2018-09-20T11:25:06.910Z,19.52
2018-09-20T11:27:36.221Z,20.07
2018-09-20T11:30:06.574Z,20.09
2018-09-20T11:32:35.978Z,20.61
2018-09-20T11:35:05.118Z,19.49
2018-09-20T11:37:34.651Z,20.04
2018-09-20T11:40:04.118Z,20.47
2018-09-20T11:42:33.762Z,20.31
2018-09-20T11:45:02.931Z,20.37
2018-09-20T11:47:32.474Z,21.52
2018-09-20T11:50:01.671Z,17.64
2018-09-20T11:52:30.834Z,16.17
2018-09-20T11:55:00.017Z,15.94
2018-09-20T11:57:29.137Z,17.29
2018-09-20T11:59:58.286Z,20.98
2018-09-20T12:02:27.544Z,21.21
2018-09-20T12:04:56.706Z,19.33
2018-09-20T12:07:25.846Z,20.93
2018-09-20T12:09:54.974Z,21.39
2018-09-20T12:12:24.210Z,18.90
2018-09-20T12:14:53.602Z,21.17
2018-09-20T12:17:22.694Z,19.61
2018-09-20T12:19:51.825Z,17.00
2018-09-20T12:22:20.914Z,20.52
2018-09-20T12:24:50.049Z,17.03
2018-09-20T12:27:19.166Z,17.01
2018-09-20T12:29:48.949Z,17.08
2018-09-20T12:32:18.173Z,18.94
2018-09-20T12:34:47.273Z,17.98
2018-09-20T12:37:16.944Z,17.61
2018-09-20T12:39:46.077Z,22.04
2018-09-20T12:42:15.295Z,26.92
2018-09-20T12:44:44.486Z,29.43
2018-09-20T12:47:13.725Z,34.82
2018-09-20T12:49:42.850Z,33.46
2018-09-20T12:52:11.978Z,33.38
2018-09-20T12:54:41.412Z,32.34
2018-09-20T12:57:10.469Z,32.98
2018-09-20T12:59:39.644Z,33.02
2018-09-20T13:02:08.869Z,34.21
2018-09-20T13:04:38.058Z,33.48
2018-09-20T13:07:07.666Z,32.48
2018-09-20T13:09:36.794Z,33.07
2018-09-20T13:12:05.981Z,30.48
2018-09-20T13:14:35.126Z,25.49
2018-09-20T13:17:05.118Z,22.67
2018-09-20T13:19:35.242Z,22.86
2018-09-20T13:22:04.375Z,19.75
2018-09-20T13:24:33.490Z,19.52
2018-09-20T13:27:02.654Z,19.40
2018-09-20T13:29:31.793Z,18.51
2018-09-20T13:32:01.232Z,16.95
2018-09-20T13:34:30.421Z,17.41
2018-09-20T13:36:59.532Z,18.96
2018-09-20T13:39:28.681Z,16.94
2018-09-20T13:41:58.225Z,16.89
2018-09-20T13:44:27.362Z,15.00
2018-09-20T13:46:56.678Z,20.75
2018-09-20T13:49:26.054Z,17.67
2018-09-20T13:51:55.214Z,18.12
2018-09-20T13:54:24.358Z,19.21
2018-09-20T13:56:53.446Z,17.42
2018-09-20T13:59:22.582Z,16.42
2018-09-20T14:01:51.846Z,15.30
2018-09-20T14:04:21.142Z,16.71
2018-09-20T14:06:51.602Z,15.26
2018-09-20T14:09:21.009Z,17.13
2018-09-20T14:11:50.142Z,23.59
2018-09-20T14:14:19.302Z,22.27
2018-09-20T14:16:49.114Z,22.99
2018-09-20T14:19:18.230Z,25.61
2018-09-20T14:21:47.394Z,27.47
2018-09-20T14:24:16.511Z,27.59
2018-09-20T14:26:45.638Z,30.27
2018-09-20T14:29:14.826Z,30.61
2018-09-20T14:31:43.992Z,31.35
2018-09-20T14:34:13.259Z,32.15
2018-09-20T14:36:42.771Z,31.98
2018-09-20T14:39:12.150Z,31.95
2018-09-20T14:41:42.525Z,31.85
2018-09-20T14:44:11.651Z,31.90
2018-09-20T14:46:40.782Z,32.07
2018-09-20T14:49:09.940Z,31.60
2018-09-20T14:51:39.197Z,32.18
2018-09-20T14:54:08.354Z,32.39
2018-09-20T14:56:37.639Z,32.93
2018-09-20T14:59:06.945Z,32.38
2018-09-20T15:01:36.074Z,33.10
2018-09-20T15:04:05.290Z,33.74
2018-09-20T15:06:34.410Z,33.43
2018-09-20T15:09:04.445Z,33.02
2018-09-20T15:11:35.046Z,33.99
2018-09-20T15:14:04.821Z,33.29
2018-09-20T15:16:33.965Z,32.96
2018-09-20T15:19:03.690Z,33.52
2018-09-20T15:21:32.863Z,34.46
2018-09-20T15:24:02.290Z,34.71
2018-09-20T15:26:31.442Z,34.81
2018-09-20T15:29:01.062Z,35.28
2018-09-20T15:31:30.191Z,34.25
2018-09-20T15:33:59.338Z,35.10
2018-09-20T15:36:28.501Z,34.79
2018-09-20T15:38:57.612Z,34.94
2018-09-20T15:41:26.814Z,35.71
2018-09-20T15:43:55.953Z,35.98
2018-09-20T15:46:25.573Z,36.19
2018-09-20T15:48:54.705Z,36.33
2018-09-20T15:51:23.937Z,36.19
2018-09-20T15:53:53.580Z,36.06
2018-09-20T15:56:23.719Z,36.77
2018-09-20T15:58:53.678Z,36.63
2018-09-20T16:01:22.966Z,36.70
2018-09-20T16:03:52.541Z,36.57
2018-09-20T16:06:21.842Z,37.63
2018-09-20T16:08:51.012Z,38.01
2018-09-20T16:11:20.161Z,38.16
2018-09-20T16:13:49.281Z,38.40
2018-09-20T16:16:18.778Z,38.25
2018-09-20T16:18:49.458Z,38.37
2018-09-20T16:21:18.945Z,40.20
2018-09-20T16:23:48.159Z,39.84
2018-09-20T16:26:17.289Z,39.79
2018-09-20T16:29:00.014Z,40.09
2018-09-20T16:34:23.400Z,39.97
2018-09-20T16:37:42.390Z,41.23
2018-09-20T16:40:23.665Z,41.21
2018-09-20T16:42:52.836Z,40.53
2018-09-20T16:45:21.973Z,40.39
2018-09-20T16:47:51.137Z,40.66
2018-09-20T16:50:20.289Z,41.81
2018-09-20T16:52:49.425Z,42.36
2018-09-20T16:55:18.565Z,41.60
2018-09-20T16:57:48.406Z,41.90
2018-09-20T17:00:17.880Z,43.54
2018-09-20T17:02:47.414Z,42.95
2018-09-20T17:05:16.638Z,43.31
2018-09-20T17:07:45.706Z,44.35
2018-09-20T17:10:14.853Z,44.94
2018-09-20T17:12:43.971Z,44.60
2018-09-20T17:15:13.244Z,45.21
2018-09-20T17:17:42.828Z,45.96
2018-09-20T17:20:11.950Z,46.71
2018-09-20T17:22:41.726Z,47.22
2018-09-20T17:25:10.866Z,47.89
2018-09-20T17:27:40.022Z,48.72
2018-09-20T17:30:09.174Z,47.45
2018-09-20T17:32:39.234Z,47.27
2018-09-20T17:35:08.726Z,47.03
2018-09-20T17:37:43.697Z,47.68
2018-09-20T17:40:13.634Z,47.88
2018-09-20T17:42:45.030Z,46.70
2018-09-20T17:45:14.178Z,46.02
2018-09-20T17:47:43.305Z,46.95
2018-09-20T17:50:12.511Z,46.64
2018-09-20T17:52:43.179Z,47.25
2018-09-20T17:55:14.107Z,46.89
2018-09-20T17:57:44.274Z,45.96
2018-09-20T18:00:13.382Z,46.08
2018-09-20T18:02:42.558Z,46.40
2018-09-20T18:05:11.698Z,46.90
2018-09-20T18:07:40.823Z,47.15
2018-09-20T18:10:10.165Z,45.92
2018-09-20T18:12:39.330Z,46.09
2018-09-20T18:15:08.551Z,46.64
2018-09-20T18:17:37.731Z,46.25
2018-09-20T18:20:07.261Z,47.73
2018-09-20T18:22:36.570Z,47.22
2018-09-20T18:25:06.009Z,48.16
2018-09-20T18:27:35.489Z,47.66
2018-09-20T18:30:06.274Z,48.42
2018-09-20T18:32:35.395Z,48.33
2018-09-20T18:35:04.658Z,49.58
2018-09-20T18:37:35.424Z,48.70
2018-09-20T18:40:04.578Z,48.88
2018-09-20T18:42:33.844Z,49.81
2018-09-20T18:45:03.262Z,49.83
2018-09-20T18:47:32.423Z,50.51
2018-09-20T18:50:01.718Z,50.54
2018-09-20T18:52:30.849Z,51.48
2018-09-20T18:54:59.973Z,50.93
2018-09-20T18:57:29.153Z,52.34
2018-09-20T18:59:58.718Z,53.27
2018-09-20T19:02:27.947Z,53.76
2018-09-20T19:04:57.150Z,54.54
2018-09-20T19:07:26.325Z,52.75
2018-09-20T19:09:55.881Z,55.16
2018-09-20T19:12:25.260Z,56.38
2018-09-20T19:14:54.609Z,56.90
2018-09-20T19:17:24.385Z,55.11
2018-09-20T19:19:53.843Z,57.05
2018-09-20T19:22:23.929Z,58.07
2018-09-20T19:24:53.702Z,56.20
2018-09-20T19:27:22.820Z,56.50
2018-09-20T19:29:51.978Z,56.78
2018-09-20T19:32:21.126Z,55.99
2018-09-20T19:34:50.850Z,57.50
2018-09-20T19:37:19.982Z,56.51
2018-09-20T19:39:49.126Z,57.91
2018-09-20T19:42:18.278Z,57.27
2018-09-20T19:44:47.396Z,57.58
2018-09-20T19:47:17.029Z,57.23
2018-09-20T19:49:46.824Z,59.45
2018-09-20T19:52:18.892Z,58.82
2018-09-20T19:54:48.053Z,59.25
2018-09-20T19:57:17.454Z,59.75
2018-09-20T19:59:46.573Z,59.20
2018-09-20T20:02:15.770Z,59.65
2018-09-20T20:04:44.973Z,61.08
2018-09-20T20:07:14.122Z,61.69
2018-09-20T20:09:43.241Z,61.27
2018-09-20T20:12:12.402Z,61.55
2018-09-20T20:14:42.909Z,61.80
2018-09-20T20:17:12.101Z,61.61
2018-09-20T20:19:41.321Z,63.34
2018-09-20T20:22:10.465Z,64.43
2018-09-20T20:24:40.902Z,65.24
2018-09-20T20:27:09.693Z,65.30
2018-09-20T20:29:39.187Z,65.70
2018-09-20T20:32:08.400Z,65.01
2018-09-20T20:34:37.514Z,65.57
2018-09-20T20:37:07.579Z,65.72
2018-09-20T20:39:36.888Z,66.60
2018-09-20T20:42:05.782Z,67.39
2018-09-20T20:44:35.481Z,67.53
2018-09-20T20:47:04.673Z,69.27
2018-09-20T20:49:33.878Z,69.53
2018-09-20T20:52:03.034Z,69.85
2018-09-20T20:54:32.190Z,70.32
2018-09-20T20:57:01.722Z,70.92
2018-09-20T20:59:30.845Z,69.97
2018-09-20T21:02:00.795Z,70.17
2018-09-20T21:04:29.970Z,69.32
2018-09-20T21:06:59.162Z,70.15
2018-09-20T21:09:28.966Z,70.20
2018-09-20T21:11:58.471Z,70.97
2018-09-20T21:14:27.456Z,70.66
2018-09-20T21:16:56.990Z,71.58
2018-09-20T21:19:26.350Z,71.37
2018-09-20T21:21:55.489Z,72.05
2018-09-20T21:24:25.161Z,72.12
2018-09-20T21:26:54.340Z,72.87
2018-09-20T21:29:23.454Z,73.20
2018-09-20T21:31:52.626Z,74.03
2018-09-20T21:34:21.793Z,73.94
2018-09-20T21:36:51.282Z,75.21
2018-09-20T21:39:20.403Z,75.85
2018-09-20T21:41:49.554Z,76.84
2018-09-20T21:44:18.938Z,77.15
2018-09-20T21:46:48.762Z,77.37
2018-09-20T21:49:18.609Z,77.82
2018-09-20T21:51:48.565Z,79.09
2018-09-20T21:54:17.819Z,79.74
2018-09-20T21:56:47.075Z,79.27
2018-09-20T21:59:16.596Z,79.78
2018-09-20T22:01:51.826Z,80.87
2018-09-20T22:04:21.106Z,81.25
2018-09-20T22:06:50.525Z,81.43
2018-09-20T22:09:20.721Z,81.40
2018-09-20T22:11:50.261Z,81.02
2018-09-20T22:14:20.161Z,82.48
2018-09-20T22:16:50.126Z,82.95
2018-09-20T22:19:20.153Z,83.46
2018-09-20T22:21:49.433Z,86.17
2018-09-20T22:24:18.557Z,86.97
2018-09-20T22:26:47.966Z,87.46
2018-09-20T22:29:17.210Z,88.31
2018-09-20T22:31:46.523Z,88.33
2018-09-20T22:34:15.817Z,88.78
2018-09-20T22:36:45.014Z,89.30
2018-09-20T22:39:14.193Z,89.84
2018-09-20T22:41:44.330Z,90.49
2018-09-20T22:44:13.646Z,91.18
2018-09-20T22:46:42.779Z,92.49
2018-09-20T22:49:41.672Z,92.24
2018-09-20T22:52:10.833Z,93.16
2018-09-20T22:54:40.062Z,93.48
2018-09-20T22:57:09.229Z,93.00
2018-09-20T22:59:38.349Z,93.86
2018-09-20T23:02:07.482Z,93.84
2018-09-20T23:04:36.649Z,93.40
2018-09-20T23:07:06.598Z,93.86
2018-09-20T23:09:35.817Z,93.85
2018-09-20T23:12:05.005Z,96.27
2018-09-20T23:14:34.672Z,97.21
2018-09-20T23:17:03.814Z,97.18
2018-09-20T23:19:32.922Z,97.47
2018-09-20T23:22:02.991Z,97.92
2018-09-20T23:24:32.139Z,97.32
2018-09-20T23:27:01.269Z,98.54
2018-09-20T23:29:30.558Z,99.77
2018-09-20T23:31:59.761Z,100.00
2018-09-20T23:34:29.094Z,99.93
2018-09-20T23:36:58.385Z,99.22
2018-09-20T23:39:27.595Z,100.00
2018-09-20T23:41:56.733Z,100.00
2018-09-20T23:44:25.867Z,100.00
2018-09-20T23:46:55.014Z,99.75
2018-09-20T23:49:24.335Z,97.20
2018-09-20T23:51:54.174Z,96.42
2018-09-20T23:54:24.085Z,98.20
2018-09-20T23:56:53.207Z,98.82
2018-09-20T23:59:22.326Z,99.97
